This is the latest recevied weather packets stored in our database for station/object KO4RJX-11. If no packets are shown the sender has not sent any weather packets the latest 10 day(s).
| Time | Temp. | Humidity | Pressure | Rain* | Wind** | Luminosity | Snow |
|---|---|---|---|---|---|---|---|
| 1777643192 | 11.11° C | 64% | 1011.4 hPa | 0 mm | - | - | - |
| 1777642792 | 11.11° C | 61% | 1011.4 hPa | 0 mm | - | - | - |
| 1777636792 | 11.11° C | 56% | 1010.7 hPa | 0 mm | - | - | - |
| 1777636393 | 11.11° C | 59% | 1010.7 hPa | 0 mm | - | - | - |
| 1777635992 | 11.11° C | 58% | 1010.7 hPa | 0 mm | - | - | - |
| 1777633592 | 11.11° C | 56% | 1010.3 hPa | 0 mm | - | - | - |
| 1777633322 | 11.11° C | 57% | 1010 hPa | 0 mm | - | - | - |
| 1777628792 | 10.56° C | 64% | 1009.7 hPa | 0 mm | - | - | - |
| 1777626392 | 10.56° C | 64% | 1010 hPa | 0 mm | - | - | - |
| 1777624392 | 11.11° C | 61% | 1009.7 hPa | 0 mm | - | - | - |
| 1777623192 | 11.11° C | 59% | 1009.3 hPa | 0 mm | - | - | - |
| 1777620793 | 12.22° C | 56% | 1009.3 hPa | 0 mm | - | - | - |
| 1777616792 | 13.33° C | 52% | 1008.6 hPa | 0 mm | - | - | - |
| 1777614392 | 13.33° C | 52% | 1008.6 hPa | 0 mm | - | - | - |
| 1777611992 | 14.44° C | 47% | 1007.9 hPa | 0 mm | - | - | - |
| 1777600393 | 16.11° C | 77% | 1006.2 hPa | 3.81 mm | - | - | - |
| 1777599725 | 16.67° C | 78% | 1006.2 hPa | 3.81 mm | - | - | - |
| 1777598392 | 16.67° C | 73% | 1005.9 hPa | 3.81 mm | - | - | - |
| 1777595992 | 17.22° C | 72% | 1005.2 hPa | 3.81 mm | - | - | - |
| 1777592392 | 18.89° C | 65% | 1004.5 hPa | 3.81 mm | - | - | - |
| 1777587723 | 21.67° C | 47% | 1004.2 hPa | 3.81 mm | - | - | - |
| 1777587192 | 21.67° C | 47% | 1003.9 hPa | 3.81 mm | - | - | - |
| 1777578392 | 21.11° C | 46% | 1004.5 hPa | 3.81 mm | - | - | - |
| 1777576792 | 21.11° C | 44% | 1004.2 hPa | 3.81 mm | - | - | - |
| 1777575192 | 20.56° C | 48% | 1004.2 hPa | 3.81 mm | - | - | - |
* Rain since midnight (hover to see other rain measurements)
** Current wind speed in m/s (hover to see current wind gust speed)